Home > Products > Valid Products > MTR

000
SAUS45 KTWC 070352
MTRSAD
METAR KSAD 070351Z AUTO 33011KT 10SM CLR 29/16 A2995 RMK AO2 SLP084
T02940156





000
SAUS45 KTWC 070252
MTRSAD
METAR KSAD 070251Z AUTO 30011KT 10SM FEW120 31/14 A2994 RMK AO2
SLP082 T03110139 53012





000
SAUS45 KTWC 070152
MTRSAD
METAR KSAD 070151Z AUTO 29018KT 10SM CLR 33/13 A2991 RMK AO2 LTG
DSNT NE SLP072 T03330128





000
SAUS45 KTWC 070052
MTRSAD
METAR KSAD 070051Z AUTO 32012KT 10SM CLR 34/13 A2990 RMK AO2 LTG
DSNT E SLP068 T03390133





000
SAUS45 KTWC 062352
MTRSAD
METAR KSAD 062351Z AUTO 29016G21KT 10SM CLR 36/13 A2990 RMK AO2 LTG
DSNT NE SLP067 T03560133 10361 20311 56023





000
SAUS45 KTWC 062253
MTRSAD
METAR KSAD 062251Z AUTO 27015G22KT 10SM CLR 36/13 A2992 RMK AO2
WSHFT 2140 SLP074 T03610133





000
SAUS45 KTWC 062253
MTRSAD
METAR KSAD 062251Z AUTO 27015G22KT 10SM CLR 36/13 A2992 RMK AO2
WSHFT 2140 SLP074 T03610133





000
SAUS45 KTWC 062201
MTRSAD
SPECI KSAD 062200Z AUTO 26016G25KT 10SM CLR 36/13 A2995 RMK AO2
WSHFT 2140 T03560133





000
SAUS45 KTWC 062153
MTRSAD
METAR KSAD 062151Z AUTO 31013KT 10SM CLR 36/13 A2995 RMK AO2 SLP084
T03560128





000
SAUS45 KTWC 062056 COR
MTRSAD
METAR KSAD 062051Z AUTO 28012G21KT 10SM CLR 36/13 A2998 RMK AO2 PK
WND 29027/2026 SLP094 T03560133 58024





000
SAUS45 KTWC 061952
MTRSAD
METAR KSAD 061951Z AUTO 29015G20KT 10SM CLR 34/14 A3000 RMK AO2
SLP103 T03440144





000
SAUS45 KTWC 061952
MTRSAD
METAR KSAD 061951Z AUTO 29015G20KT 10SM CLR 34/14 A3000 RMK AO2
SLP103 T03440144





000
SAUS45 KTWC 061852
MTRSAD
METAR KSAD 061851Z AUTO 28013G19KT 10SM CLR 33/16 A3003 RMK AO2
SLP115 T03330161





000
SAUS45 KTWC 061852
MTRSAD
METAR KSAD 061851Z AUTO 28013G19KT 10SM CLR 33/16 A3003 RMK AO2
SLP115 T03330161





000
SAUS45 KTWC 061753
MTRSAD
METAR KSAD 061751Z AUTO 30015KT 10SM CLR 32/16 A3005 RMK AO2 SLP125
T03170161 10317 20217 58009





000
SAUS45 KTWC 061652
MTRSAD
METAR KSAD 061651Z AUTO 29013KT 10SM CLR 29/17 A3007 RMK AO2 SLP130
T02940167





000
SAUS45 KTWC 061552
MTRSAD
METAR KSAD 061551Z AUTO 30012KT 10SM CLR 28/17 A3007 RMK AO2 SLP135
T02780172





000
SAUS45 KTWC 061552
MTRSAD
METAR KSAD 061551Z AUTO 30012KT 10SM CLR 28/17 A3007 RMK AO2 SLP135
T02780172





000
SAUS45 KTWC 061452
MTRSAD
METAR KSAD 061451Z AUTO 00000KT 10SM CLR 24/19 A3008 RMK AO2 SLP142
T02390189 53006





000
SAUS45 KTWC 061452
MTRSAD
METAR KSAD 061451Z AUTO 00000KT 10SM CLR 24/19 A3008 RMK AO2 SLP142
T02390189 53006





000
SAUS45 KTWC 061353
MTRSAD
METAR KSAD 061351Z AUTO 00000KT 10SM CLR 22/19 A3007 RMK AO2 SLP139
T02220194





000
SAUS45 KTWC 061353
MTRSAD
METAR KSAD 061351Z AUTO 00000KT 10SM CLR 22/19 A3007 RMK AO2 SLP139
T02220194





000
SAUS45 KTWC 061253
MTRSAD
METAR KSAD 061251Z AUTO 00000KT 10SM FEW120 22/20 A3007 RMK AO2
SLP136 T02170200





000
SAUS45 KTWC 061253
MTRSAD
METAR KSAD 061251Z AUTO 00000KT 10SM FEW120 22/20 A3007 RMK AO2
SLP136 T02170200





000
SAUS45 KTWC 061153
MTRSAD
METAR KSAD 061151Z AUTO 00000KT 10SM FEW120 22/19 A3006 RMK AO2
SLP125 70024 T02170194 10222 20211 51007





000
SAUS45 KTWC 061153
MTRSAD
METAR KSAD 061151Z AUTO 00000KT 10SM FEW120 22/19 A3006 RMK AO2
SLP125 70024 T02170194 10222 20211 51007





000
SAUS45 KTWC 061053
MTRSAD
METAR KSAD 061051Z AUTO 00000KT 10SM OVC110 22/19 A3005 RMK AO2
SLP123 T02170194





000
SAUS45 KTWC 061053
MTRSAD
METAR KSAD 061051Z AUTO 00000KT 10SM OVC110 22/19 A3005 RMK AO2
SLP123 T02170194





000
SAUS45 KTWC 060952
MTRSAD
METAR KSAD 060951Z AUTO 00000KT 10SM OVC100 22/20 A3005 RMK AO2
SLP120 T02170200





000
SAUS45 KTWC 060852
MTRSAD
METAR KSAD 060851Z AUTO 00000KT 10SM CLR 21/20 A3004 RMK AO2 SLP119
T02110200 58006





000
SAUS45 KTWC 060752
MTRSAD
METAR KSAD 060751Z AUTO 05005KT 10SM SCT120 22/19 A3005 RMK AO2
SLP124 T02170194





000
SAUS45 KTWC 060653
MTRSAD
METAR KSAD 060651Z AUTO 00000KT 10SM BKN110 22/19 A3006 RMK AO2
SLP130 T02170194 403330206





000
SAUS45 KTWC 060552
MTRSAD
METAR KSAD 060551Z AUTO 14005KT 10SM CLR 21/20 A3006 RMK AO2 SLP130
60024 T02110200 10328 20206 53006





000
SAUS45 KTWC 060452
MTRSAD
METAR KSAD 060451Z AUTO 07004KT 10SM CLR 22/21 A3005 RMK AO2 RAE24
SLP127 P0000 T02170206





000
SAUS45 KTWC 060352
MTRSAD
METAR KSAD 060351Z AUTO 00000KT 10SM -RA FEW110 22/20 A3004 RMK AO2
SLP123 P0003 T02170200





000
SAUS45 KTWC 060253
MTRSAD
METAR KSAD 060251Z AUTO 29003KT 10SM -RA BKN120 21/19 A3004 RMK AO2
SLP125 P0001 60021 T02110189 51029





000
SAUS45 KTWC 060152
MTRSAD
METAR KSAD 060151Z AUTO 30012KT 10SM -RA OVC110 23/19 A3003 RMK AO2
LTG DSNT S SLP122 P0020 T02280189





000
SAUS45 KTWC 060127
MTRSAD
SPECI KSAD 060125Z AUTO 34010KT 3SM RA FEW055 BKN070 OVC090 22/19
A3003 RMK AO2 LTG DSNT W P0019 T02170189





000
SAUS45 KTWC 060109
MTRSAD
SPECI KSAD 060108Z AUTO 36015KT 1 3/4SM +RA FEW055 OVC065 22/19
A3000 RMK AO2 LTG DSNT W P0003 T02170189





000
SAUS45 KTWC 060109
MTRSAD
SPECI KSAD 060108Z AUTO 36015KT 1 3/4SM +RA FEW055 OVC065 22/19
A3000 RMK AO2 LTG DSNT W P0003 T02170189





000
SAUS45 KTWC 060053
MTRSAD
METAR KSAD 060051Z AUTO 01019G25KT 10SM -RA OVC065 25/17 A2999 RMK
AO2 PK WND 05026/0019 WSHFT 2346 RAB24 SLP107 P0000 T02500172





000
SAUS45 KTWC 060053
MTRSAD
METAR KSAD 060051Z AUTO 01019G25KT 10SM -RA OVC065 25/17 A2999 RMK
AO2 PK WND 05026/0019 WSHFT 2346 RAB24 SLP107 P0000 T02500172





000
SAUS45 KTWC 060007
MTRSAD
SPECI KSAD 060006Z AUTO 00000KT 10SM BKN075 BKN095 31/14 A2996 RMK
AO2 WSHFT 2346 T03110144





000
SAUS45 KTWC 060007
MTRSAD
SPECI KSAD 060006Z AUTO 00000KT 10SM BKN075 BKN095 31/14 A2996 RMK
AO2 WSHFT 2346 T03110144





000
SAUS45 KTWC 052353
MTRSAD
METAR KSAD 052351Z AUTO 31011KT 10SM SCT075 SCT095 33/13 A2994 RMK
AO2 LTG DSNT NW-NE SLP080 60000 T03280133 10333 20272 56015





000
SAUS45 KTWC 052353
MTRSAD
METAR KSAD 052351Z AUTO 31011KT 10SM SCT075 SCT095 33/13 A2994 RMK
AO2 LTG DSNT NW-NE SLP080 60000 T03280133 10333 20272 56015





000
SAUS45 KTWC 052253
MTRSAD
METAR KSAD 052251Z AUTO 29015G23KT 10SM CLR 32/15 A2995 RMK AO2 LTG
DSNT N AND NE SLP082 T03220150





000
SAUS45 KTWC 052253
MTRSAD
METAR KSAD 052251Z AUTO 29015G23KT 10SM CLR 32/15 A2995 RMK AO2 LTG
DSNT N AND NE SLP082 T03220150





000
SAUS45 KTWC 052152
MTRSAD
METAR KSAD 052151Z AUTO 27012G20KT 10SM CLR 32/16 A2996 RMK AO2
SLP087 T03220156





000
SAUS45 KTWC 052052
MTRSAD
METAR KSAD 052051Z AUTO 27014G19KT 10SM CLR 32/16 A2999 RMK AO2
SLP095 60000 T03220161 58022





000
SAUS45 KTWC 052052
MTRSAD
METAR KSAD 052051Z AUTO 27014G19KT 10SM CLR 32/16 A2999 RMK AO2
SLP095 60000 T03220161 58022





000
SAUS45 KTWC 051952
MTRSAD
METAR KSAD 051951Z AUTO 27012KT 10SM FEW110 31/16 A3002 RMK AO2
SLP107 T03060161





000
SAUS45 KTWC 051852
MTRSAD
METAR KSAD 051851Z AUTO 31008KT 10SM OVC100 29/16 A3005 RMK AO2
RAE16 SLP118 P0000 T02890156





000
SAUS45 KTWC 051752
MTRSAD
METAR KSAD 051751Z AUTO 30010KT 10SM -RA FEW060 SCT070 OVC110 28/17
A3006 RMK AO2 RAB42 SLP124 P0000 60000 T02780167 10283 20250 52006





000
SAUS45 KTWC 051752
MTRSAD
METAR KSAD 051751Z AUTO 30010KT 10SM -RA FEW060 SCT070 OVC110 28/17
A3006 RMK AO2 RAB42 SLP124 P0000 60000 T02780167 10283 20250 52006





000
SAUS45 KTWC 051652
MTRSAD
METAR KSAD 051651Z AUTO 30007KT 10SM OVC100 28/16 A3005 RMK AO2
SLP119 T02830156





000
SAUS45 KTWC 051652
MTRSAD
METAR KSAD 051651Z AUTO 30007KT 10SM OVC100 28/16 A3005 RMK AO2
SLP119 T02830156





000
SAUS45 KTWC 051552
MTRSAD
METAR KSAD 051551Z AUTO 26004KT 10SM FEW050 BKN090 OVC110 27/17
A3005 RMK AO2 SLP119 T02720167





000
SAUS45 KTWC 051452
MTRSAD
METAR KSAD 051451Z AUTO 31004KT 10SM BKN110 26/18 A3004 RMK AO2
SLP116 T02610178 51017





000
SAUS45 KTWC 051353
MTRSAD
METAR KSAD 051351Z AUTO 03005KT 10SM CLR 26/17 A3003 RMK AO2 SLP110
T02610172





000
SAUS45 KTWC 051252
MTRSAD
METAR KSAD 051251Z AUTO 09005KT 10SM CLR 25/17 A3002 RMK AO2 SLP107
T02500172





000
SAUS45 KTWC 051153
MTRSAD
METAR KSAD 051151Z AUTO 09009KT 10SM CLR 26/17 A2999 RMK AO2 SLP096
T02560172 10289 20256 53004





000
SAUS45 KTWC 051052
MTRSAD
METAR KSAD 051051Z AUTO 11008KT 10SM CLR 26/17 A2998 RMK AO2 SLP089
T02610172





000
SAUS45 KTWC 050952
MTRSAD
METAR KSAD 050951Z AUTO 12007KT 10SM CLR 27/17 A2997 RMK AO2 SLP091
T02670167





000
SAUS45 KTWC 050853
MTRSAD
METAR KSAD 050851Z AUTO 10006KT 10SM BKN110 27/16 A2998 RMK AO2
SLP087 T02720161 52002





000
SAUS45 KTWC 050752
MTRSAD
METAR KSAD 050751Z AUTO 17006KT 10SM CLR 28/17 A2997 RMK AO2 SLP087
T02780172





000
SAUS45 KTWC 050752
MTRSAD
METAR KSAD 050751Z AUTO 17006KT 10SM CLR 28/17 A2997 RMK AO2 SLP087
T02780172





000
SAUS45 KTWC 050652
MTRSAD
METAR KSAD 050651Z AUTO 03004KT 10SM BKN110 28/17 A2997 RMK AO2
SLP088 T02780167 403560244





000
SAUS45 KTWC 050652
MTRSAD
METAR KSAD 050651Z AUTO 03004KT 10SM BKN110 28/17 A2997 RMK AO2
SLP088 T02780167 403560244





000
SAUS45 KTWC 050552
MTRSAD
METAR KSAD 050551Z AUTO 24003KT 10SM CLR 28/16 A2997 RMK AO2 SLP088
T02830161 10333 20283 51017





000
SAUS45 KTWC 050552
MTRSAD
METAR KSAD 050551Z AUTO 24003KT 10SM CLR 28/16 A2997 RMK AO2 SLP088
T02830161 10333 20283 51017





000
SAUS45 KTWC 050453
MTRSAD
METAR KSAD 050451Z AUTO 22007KT 10SM CLR 29/16 A2997 RMK AO2 SLP088
T02890161





000
SAUS45 KTWC 050453
MTRSAD
METAR KSAD 050451Z AUTO 22007KT 10SM CLR 29/16 A2997 RMK AO2 SLP088
T02890161





000
SAUS45 KTWC 050353
MTRSAD
METAR KSAD 050351Z AUTO 01009G16KT 10SM CLR 31/14 A2994 RMK AO2
SLP077 T03060139





000
SAUS45 KTWC 050252
MTRSAD
METAR KSAD 050251Z AUTO 03007KT 10SM CLR 31/15 A2992 RMK AO2 SLP070
T03110150 53006





000
SAUS45 KTWC 050152
MTRSAD
METAR KSAD 050151Z AUTO 04011KT 10SM CLR 32/16 A2990 RMK AO2 SLP065
T03220156





000
SAUS45 KTWC 050052
MTRSAD
METAR KSAD 050051Z AUTO 29011KT 10SM CLR 32/14 A2990 RMK AO2 SLP065
T03220139





000
SAUS45 KTWC 050052
MTRSAD
METAR KSAD 050051Z AUTO 29011KT 10SM CLR 32/14 A2990 RMK AO2 SLP065
T03220139





000
SAUS45 KTWC 042352
MTRSAD
METAR KSAD 042351Z AUTO 27016KT 10SM CLR 33/14 A2990 RMK AO2 LTG
DSNT S SLP064 T03280139 10356 20289 55005





000
SAUS45 KTWC 042352
MTRSAD
METAR KSAD 042351Z AUTO 27016KT 10SM CLR 33/14 A2990 RMK AO2 LTG
DSNT S SLP064 T03280139 10356 20289 55005





000
SAUS45 KTWC 042252
MTRSAD
METAR KSAD 042251Z AUTO 32014KT 10SM CLR 34/14 A2989 RMK AO2 LTG
DSNT NE AND S AND SW SLP057 T03440139





000
SAUS45 KTWC 042152
MTRSAD
METAR KSAD 042151Z AUTO 29012KT 10SM FEW120 32/16 A2991 RMK AO2 PK
WND 28030/2100 WSHFT 2040 LTG DSNT SW TSB07E22 SLP066 T03220156





000
SAUS45 KTWC 042129
MTRSAD
SPECI KSAD 042128Z AUTO 27018G26KT 10SM FEW120 29/17 A2992 RMK AO2
PK WND 28030/2100 WSHFT 2040 LTG DSNT SW TSB07E22 T02890167





000
SAUS45 KTWC 042115
MTRSAD
SPECI KSAD 042113Z AUTO 27022G29KT 10SM TS FEW080 30/17 A2992 RMK
AO2 PK WND 28030/2100 WSHFT 2040 LTG DSNT S-W TSB07 T03000167





000
SAUS45 KTWC 042101
MTRSAD
SPECI KSAD 042100Z AUTO 28021G30KT 10SM SCT070 BKN085 36/15 A2992
RMK AO2 PK WND 28030/2100 WSHFT 2040 LTG DSNT SW AND W T03560150





000
SAUS45 KTWC 042053
MTRSAD
METAR KSAD 042051Z AUTO 29016G22KT 10SM BKN075 BKN090 35/14 A2991
RMK AO2 LTG DSNT SW AND W SLP065 T03500144 58023





000
SAUS45 KTWC 041952
MTRSAD
METAR KSAD 041951Z AUTO VRB03KT 10SM CLR 34/15 A2994 RMK AO2 LTG
DSNT SW AND W SLP074 T03440150





000
SAUS45 KTWC 041852
MTRSAD
METAR KSAD 041851Z AUTO 12007KT 10SM CLR 32/14 A2997 RMK AO2 LTG
DSNT NW SLP088 T03220144





000
SAUS45 KTWC 041752
MTRSAD
METAR KSAD 041751Z AUTO 14007KT 100V170 10SM FEW100 31/16 A2999 RMK
AO2 LTG DSNT SW SLP094 T03110156 10311 20244 50001





000
SAUS45 KTWC 041653
MTRSAD
METAR KSAD 041651Z AUTO 16011KT 10SM CLR 31/16 A2999 RMK AO2 SLP095
T03060156





000
SAUS45 KTWC 041653
MTRSAD
METAR KSAD 041651Z AUTO 16011KT 10SM CLR 31/16 A2999 RMK AO2 SLP095
T03060156





000
SAUS45 KTWC 041552
MTRSAD
METAR KSAD 041551Z AUTO 09013KT 10SM SCT110 29/16 A3000 RMK AO2
SLP097 T02940161





000
SAUS45 KTWC 041452
MTRSAD
METAR KSAD 041451Z AUTO 09013KT 10SM CLR 28/16 A2998 RMK AO2 SLP093
T02830156 53013





000
SAUS45 KTWC 041352
MTRSAD
METAR KSAD 041351Z AUTO 08014KT 10SM CLR 27/15 A2997 RMK AO2 SLP084
T02720150





000
SAUS45 KTWC 041252
MTRSAD
METAR KSAD 041251Z AUTO 10007KT 10SM CLR 25/16 A2995 RMK AO2 SLP079
T02500156





000
SAUS45 KTWC 041252
MTRSAD
METAR KSAD 041251Z AUTO 10007KT 10SM CLR 25/16 A2995 RMK AO2 SLP079
T02500156





000
SAUS45 KTWC 041153
MTRSAD
METAR KSAD 041151Z AUTO 10006KT 10SM CLR 26/16 A2994 RMK AO2 SLP077
70003 T02560156 10289 20256 53008





000
SAUS45 KTWC 041052
MTRSAD
METAR KSAD 041051Z AUTO 10009KT 10SM FEW100 27/15 A2993 RMK AO2
SLP073 T02670150





000
SAUS45 KTWC 040952
MTRSAD
METAR KSAD 040951Z AUTO 09011G21KT 10SM CLR 27/14 A2992 RMK AO2
SLP070 T02720144





000
SAUS45 KTWC 040852
MTRSAD
METAR KSAD 040851Z AUTO 09009KT 10SM FEW090 28/16 A2992 RMK AO2
SLP068 T02780161 50005





000
SAUS45 KTWC 040852
MTRSAD
METAR KSAD 040851Z AUTO 09009KT 10SM FEW090 28/16 A2992 RMK AO2
SLP068 T02780161 50005





000
SAUS45 KTWC 040752
MTRSAD
METAR KSAD 040751Z AUTO 09007KT 10SM BKN095 27/17 A2992 RMK AO2
SLP074 T02720172





000
SAUS45 KTWC 040653
MTRSAD
METAR KSAD 040651Z AUTO 03003KT 10SM FEW100 27/19 A2991 RMK AO2
SLP073 T02720194 403560211





000
SAUS45 KTWC 040553
MTRSAD
METAR KSAD 040551Z AUTO VRB04KT 10SM CLR 28/17 A2990 RMK AO2 SLP068
T02830167 10356 20283 53008





000
SAUS45 KTWC 040453
MTRSAD
METAR KSAD 040451Z AUTO 10007KT 10SM CLR 30/16 A2989 RMK AO2 SLP064
T03000161





    US Dept of Commerce
    National Oceanic and Atmospheric Administration
    National Weather Service
    1325 East West Highway
    Silver Spring, MD 20910
    Page Author: NWS Internet Services Team
Disclaimer
Information Quality
Credits
Glossary
Privacy Policy
Freedom of Information Act (FOIA)
About Us
Career Opportunities